createdAt,value
2023-01-20T00:00:33.869Z,99423.25
2023-01-20T00:03:01.447Z,99419.84
2023-01-20T00:05:29.008Z,99424.75
2023-01-20T00:07:56.560Z,99427.88
2023-01-20T00:10:24.084Z,99432.72
2023-01-20T00:12:51.562Z,99429.16
2023-01-20T00:15:19.084Z,99432.44
2023-01-20T00:17:47.970Z,99428.09
2023-01-20T00:20:15.738Z,99428.75
2023-01-20T00:22:43.258Z,99430.34
2023-01-20T00:25:11.292Z,99436.06
2023-01-20T00:27:38.868Z,99430.13
2023-01-20T00:30:07.750Z,99442.19
2023-01-20T00:32:39.064Z,99446.56
2023-01-20T00:35:10.509Z,99441.88
2023-01-20T00:37:38.157Z,99457.03
2023-01-20T00:40:07.193Z,99447.81
2023-01-20T00:42:34.779Z,99445.94
2023-01-20T00:45:02.503Z,99455.31
2023-01-20T00:47:30.054Z,99456.19
2023-01-20T00:49:57.576Z,99461.09
2023-01-20T00:52:26.480Z,99462.88
2023-01-20T00:54:54.074Z,99459.78
2023-01-20T00:57:21.629Z,99469.03
2023-01-20T00:59:49.236Z,99473.97
2023-01-20T01:02:16.782Z,99470.41
2023-01-20T01:04:44.501Z,99476.97
2023-01-20T01:07:12.101Z,99479.25
2023-01-20T01:09:41.030Z,99470.78
2023-01-20T01:12:08.743Z,99484.09
2023-01-20T01:14:36.309Z,99479.06
2023-01-20T01:17:03.817Z,99485.47
2023-01-20T01:19:31.352Z,99485.25
2023-01-20T01:21:58.894Z,99490.06
2023-01-20T01:24:26.428Z,99497.22
2023-01-20T01:26:55.535Z,99501.31
2023-01-20T01:29:23.210Z,99497.84
2023-01-20T01:31:50.818Z,99511.03
2023-01-20T01:34:18.380Z,99515.09
2023-01-20T01:36:45.872Z,99513.56
2023-01-20T01:39:13.374Z,99516.88
2023-01-20T01:41:40.962Z,99521.44
2023-01-20T01:44:11.828Z,99528.72
2023-01-20T01:46:40.761Z,99522.28
2023-01-20T01:49:12.711Z,99527.91
2023-01-20T01:51:43.759Z,99531.91
2023-01-20T01:54:14.244Z,99530.91
2023-01-20T01:56:44.201Z,99531.69
2023-01-20T01:59:15.102Z,99529.16
2023-01-20T02:01:48.327Z,99528.19
2023-01-20T02:04:17.990Z,99530.03
2023-01-20T02:06:47.569Z,99537.72
2023-01-20T02:09:15.404Z,99533.66
2023-01-20T02:11:48.411Z,99541.31
2023-01-20T02:14:18.891Z,99543.25
2023-01-20T02:16:59.007Z,99546.56
2023-01-20T02:20:05.859Z,99550.53
2023-01-20T02:22:48.310Z,99550.13
2023-01-20T02:25:47.597Z,99549.06
2023-01-20T02:28:46.237Z,99556.31
2023-01-20T02:31:56.791Z,99554.19
2023-01-20T02:34:29.116Z,99563.31
2023-01-20T02:37:00.154Z,99559.00
2023-01-20T02:39:31.996Z,99567.38
2023-01-20T02:42:05.145Z,99564.75
2023-01-20T02:44:36.739Z,99563.88
2023-01-20T02:47:12.989Z,99569.72
2023-01-20T02:49:45.297Z,99566.97
2023-01-20T02:52:16.253Z,99574.63
2023-01-20T02:54:49.868Z,99573.19
2023-01-20T02:57:22.485Z,99572.63
2023-01-20T02:59:54.295Z,99578.78
2023-01-20T03:02:26.640Z,99573.03
2023-01-20T03:05:00.196Z,99580.03
2023-01-20T03:07:30.391Z,99580.03
2023-01-20T03:10:02.016Z,99581.78
2023-01-20T03:12:34.496Z,99588.56
2023-01-20T03:15:02.109Z,99591.09
2023-01-20T03:17:31.231Z,99591.19
2023-01-20T03:19:58.888Z,99595.59
2023-01-20T03:22:26.536Z,99595.59
2023-01-20T03:24:55.806Z,99604.13
2023-01-20T03:27:23.416Z,99600.84
2023-01-20T03:29:51.071Z,99603.47
2023-01-20T03:32:22.670Z,99607.63
2023-01-20T03:34:51.671Z,99607.81
2023-01-20T03:37:19.236Z,99608.03
2023-01-20T03:39:47.087Z,99619.88
2023-01-20T03:42:19.611Z,99616.56
2023-01-20T03:45:01.342Z,99612.41
2023-01-20T03:47:42.364Z,99618.53
2023-01-20T03:50:23.766Z,99622.63
2023-01-20T03:52:56.567Z,99620.88
2023-01-20T03:55:27.582Z,99613.97
2023-01-20T03:58:03.335Z,99624.75
2023-01-20T04:00:33.534Z,99623.97
2023-01-20T04:03:06.825Z,99633.28
2023-01-20T04:05:35.955Z,99634.25
2023-01-20T04:08:08.022Z,99639.13
2023-01-20T04:10:37.881Z,99639.00
2023-01-20T04:13:05.753Z,99640.25
2023-01-20T04:15:35.837Z,99646.84
2023-01-20T04:18:15.852Z,99643.47
2023-01-20T04:20:47.169Z,99649.16
2023-01-20T04:23:21.753Z,99650.72
2023-01-20T04:25:49.408Z,99646.44
2023-01-20T04:28:17.016Z,99656.63
2023-01-20T04:30:44.649Z,99667.59
2023-01-20T04:33:12.278Z,99665.63
2023-01-20T04:35:39.913Z,99668.06
2023-01-20T04:38:08.875Z,99674.00
2023-01-20T04:40:36.535Z,99673.78
2023-01-20T04:43:04.395Z,99672.59
2023-01-20T04:45:32.019Z,99672.94
2023-01-20T04:47:59.600Z,99679.56
2023-01-20T04:50:27.243Z,99675.16
2023-01-20T04:52:56.177Z,99684.19
2023-01-20T04:55:26.672Z,99684.63
2023-01-20T04:57:54.219Z,99686.94
2023-01-20T05:00:22.257Z,99689.16
2023-01-20T05:02:49.893Z,99692.31
2023-01-20T05:05:17.944Z,99695.41
2023-01-20T05:07:45.617Z,99701.53
2023-01-20T05:10:13.427Z,99692.78
2023-01-20T05:12:42.611Z,99702.84
2023-01-20T05:15:10.944Z,99706.59
2023-01-20T05:17:38.563Z,99705.63
2023-01-20T05:20:06.749Z,99712.09
2023-01-20T05:22:34.565Z,99712.88
2023-01-20T05:25:02.096Z,99717.81
2023-01-20T05:27:29.699Z,99714.38
2023-01-20T05:29:58.641Z,99720.00
2023-01-20T05:32:26.215Z,99715.75
2023-01-20T05:34:53.848Z,99726.56
2023-01-20T05:37:21.420Z,99725.69
2023-01-20T05:39:49.030Z,99734.13
2023-01-20T05:42:16.698Z,99729.66
2023-01-20T05:44:44.342Z,99732.72
2023-01-20T05:47:13.417Z,99736.91
2023-01-20T05:49:41.615Z,99735.03
2023-01-20T05:52:09.138Z,99743.13
2023-01-20T05:54:36.726Z,99747.19
2023-01-20T05:57:05.567Z,99752.00
2023-01-20T05:59:33.229Z,99743.69
2023-01-20T06:02:00.815Z,99756.84
2023-01-20T06:04:29.688Z,99761.66
2023-01-20T06:06:57.238Z,99757.94
2023-01-20T06:09:25.070Z,99765.84
2023-01-20T06:11:52.772Z,99767.34
2023-01-20T06:14:20.513Z,99766.47
2023-01-20T06:16:48.092Z,99776.69
2023-01-20T06:19:15.877Z,99774.91
2023-01-20T06:21:46.847Z,99774.63
2023-01-20T06:24:14.760Z,99771.41
2023-01-20T06:26:42.366Z,99779.75
2023-01-20T06:29:09.874Z,99785.56
2023-01-20T06:31:37.535Z,99795.88
2023-01-20T06:34:05.079Z,99785.34
2023-01-20T06:36:32.612Z,99787.97
2023-01-20T06:39:01.475Z,99788.28
2023-01-20T06:41:29.049Z,99796.41
2023-01-20T06:43:56.641Z,99791.88
2023-01-20T06:46:24.244Z,99801.78
2023-01-20T06:48:51.812Z,99807.44
2023-01-20T06:51:21.296Z,99804.59
2023-01-20T06:53:49.085Z,99808.66
2023-01-20T06:56:18.310Z,99809.28
2023-01-20T06:58:46.154Z,99810.94
2023-01-20T07:01:15.893Z,99815.97
2023-01-20T07:03:44.245Z,99820.69
2023-01-20T07:06:17.276Z,99828.94
2023-01-20T07:08:45.994Z,99835.34
2023-01-20T07:11:13.920Z,99832.06
2023-01-20T07:13:43.305Z,99836.78
2023-01-20T07:16:15.188Z,99838.91
2023-01-20T07:18:43.722Z,99845.84
2023-01-20T07:21:12.662Z,99837.69
2023-01-20T07:23:40.245Z,99848.19
2023-01-20T07:26:09.395Z,99851.25
2023-01-20T07:28:56.141Z,99854.31
2023-01-20T07:31:25.546Z,99854.09
2023-01-20T07:33:55.228Z,99862.50
2023-01-20T07:36:23.111Z,99869.97
2023-01-20T07:38:51.719Z,99877.09
2023-01-20T07:41:21.016Z,99877.31
2023-01-20T07:43:51.483Z,99876.44
2023-01-20T07:46:21.307Z,99885.88
2023-01-20T07:48:48.934Z,99881.94
2023-01-20T07:51:17.222Z,99891.38
2023-01-20T07:53:46.685Z,99887.22
2023-01-20T07:56:16.552Z,99883.94
2023-01-20T07:58:45.160Z,99896.31
2023-01-20T08:01:14.798Z,99898.19
2023-01-20T08:03:44.569Z,99903.16
2023-01-20T08:06:13.831Z,99907.06
2023-01-20T08:08:41.369Z,99904.88
2023-01-20T08:11:11.363Z,99907.06
2023-01-20T08:13:39.418Z,99909.72
2023-01-20T08:16:09.108Z,99921.13
2023-01-20T08:18:36.947Z,99927.50
2023-01-20T08:21:08.247Z,99931.66
2023-01-20T08:23:36.961Z,99927.06
2023-01-20T08:26:07.214Z,99938.47
2023-01-20T08:28:36.239Z,99935.16
2023-01-20T08:31:05.875Z,99943.06
2023-01-20T08:33:33.580Z,99940.19
2023-01-20T08:36:07.816Z,99942.38
2023-01-20T08:38:36.382Z,99941.25
2023-01-20T08:41:07.684Z,99942.09
2023-01-20T08:43:35.231Z,99947.78
2023-01-20T08:46:06.395Z,99948.84
2023-01-20T08:48:34.324Z,99952.50
2023-01-20T08:51:07.538Z,99957.66
2023-01-20T08:53:35.725Z,99967.84
2023-01-20T08:56:04.400Z,99965.16
2023-01-20T08:58:31.993Z,99969.88
2023-01-20T09:00:59.892Z,99973.69
2023-01-20T09:03:28.129Z,99969.31
2023-01-20T09:05:56.148Z,99976.72
2023-01-20T09:08:26.904Z,99981.81
2023-01-20T09:10:57.438Z,99983.38
2023-01-20T09:13:24.977Z,99983.19
2023-01-20T09:15:53.292Z,99988.63
2023-01-20T09:18:20.883Z,99994.44
2023-01-20T09:20:48.427Z,99988.56
2023-01-20T09:23:16.094Z,99987.91
2023-01-20T09:25:44.948Z,99989.75
2023-01-20T09:28:14.179Z,99994.22
2023-01-20T09:30:42.761Z,99996.09
2023-01-20T09:33:11.318Z,100001.19
2023-01-20T09:35:39.015Z,100001.84
2023-01-20T09:38:36.544Z,99996.31
2023-01-20T09:41:35.735Z,100004.66
2023-01-20T09:44:15.928Z,100003.44
2023-01-20T09:47:26.139Z,100007.66
2023-01-20T09:50:36.094Z,100015.38
2023-01-20T09:53:08.081Z,100010.28
2023-01-20T09:55:44.045Z,100023.75
2023-01-20T09:58:21.573Z,100023.75
2023-01-20T10:00:54.044Z,100019.50
2023-01-20T10:03:29.671Z,100026.94
2023-01-20T10:06:00.545Z,100023.34
2023-01-20T10:08:35.662Z,100022.94
2023-01-20T10:11:10.318Z,100026.38
2023-01-20T10:13:47.311Z,100029.56
2023-01-20T10:16:25.037Z,100021.63
2023-01-20T10:18:57.501Z,100021.34
2023-01-20T10:21:32.399Z,100017.75
2023-01-20T10:24:05.747Z,100026.69
2023-01-20T10:26:38.098Z,100019.75
2023-01-20T10:29:11.005Z,100019.38
2023-01-20T10:31:44.280Z,100026.03
2023-01-20T10:34:13.921Z,100019.91
2023-01-20T10:36:44.159Z,100035.59
2023-01-20T10:39:21.804Z,100022.53
2023-01-20T10:41:53.461Z,100021.44
2023-01-20T10:44:24.075Z,100024.00
2023-01-20T10:47:13.490Z,100028.19
2023-01-20T10:49:58.760Z,100027.81
2023-01-20T10:52:42.869Z,100022.53
2023-01-20T10:55:22.613Z,100027.94
2023-01-20T10:57:55.699Z,100017.59
2023-01-20T11:00:27.550Z,100019.59
2023-01-20T11:02:58.977Z,100023.53
2023-01-20T11:05:30.362Z,100019.41
2023-01-20T11:08:00.697Z,100026.00
2023-01-20T11:10:33.275Z,100018.97
2023-01-20T11:13:02.751Z,100029.47
2023-01-20T11:15:34.768Z,100027.63
2023-01-20T11:18:29.807Z,100031.50
2023-01-20T11:21:00.740Z,100029.06
2023-01-20T11:23:36.466Z,100029.97
2023-01-20T11:26:13.286Z,100041.53
2023-01-20T11:28:51.525Z,100042.50
2023-01-20T11:31:21.336Z,100037.50
2023-01-20T11:33:58.095Z,100033.19
2023-01-20T11:36:26.836Z,100037.84
2023-01-20T11:38:56.410Z,100041.81
2023-01-20T11:41:25.748Z,100042.78
2023-01-20T11:43:56.078Z,100035.97
2023-01-20T11:46:27.901Z,100037.09
2023-01-20T11:49:16.963Z,100043.34
2023-01-20T11:51:50.903Z,100042.72
2023-01-20T11:54:21.282Z,100042.63
2023-01-20T11:56:53.219Z,100038.91
2023-01-20T11:59:26.907Z,100032.69
2023-01-20T12:02:00.691Z,100027.19
2023-01-20T12:04:53.939Z,100031.63
2023-01-20T12:07:25.273Z,100037.09
2023-01-20T12:09:55.542Z,100036.47
2023-01-20T12:12:30.503Z,100041.06
2023-01-20T12:15:03.000Z,100048.09
2023-01-20T12:17:40.726Z,100043.81
2023-01-20T12:20:18.121Z,100041.09
2023-01-20T12:22:55.483Z,100034.22
2023-01-20T12:25:26.458Z,100035.69
2023-01-20T12:27:57.540Z,100051.34
2023-01-20T12:30:43.407Z,100043.94
2023-01-20T12:33:20.519Z,100043.66
2023-01-20T12:36:24.880Z,100057.97
2023-01-20T12:39:18.204Z,100046.69
2023-01-20T12:41:59.992Z,100042.72
2023-01-20T12:44:36.665Z,100048.16
2023-01-20T12:47:17.351Z,100053.84
2023-01-20T12:50:00.976Z,100048.94
2023-01-20T12:52:44.506Z,100048.69
2023-01-20T12:55:31.066Z,100051.94
2023-01-20T12:58:08.127Z,100055.22
2023-01-20T13:00:47.411Z,100057.06
2023-01-20T13:03:34.658Z,100061.50
2023-01-20T13:06:50.109Z,100063.25
2023-01-20T13:09:32.950Z,100055.78
2023-01-20T13:12:10.495Z,100055.53
2023-01-20T13:14:43.671Z,100048.38
2023-01-20T13:17:20.547Z,100051.97
2023-01-20T13:19:49.820Z,100050.38
2023-01-20T13:22:20.476Z,100059.19
2023-01-20T13:24:53.275Z,100055.03
2023-01-20T13:27:25.875Z,100064.94
2023-01-20T13:29:56.706Z,100062.13
2023-01-20T13:32:32.811Z,100062.13
2023-01-20T13:35:01.902Z,100061.84
2023-01-20T13:37:33.057Z,100063.50
2023-01-20T13:40:02.464Z,100058.13
2023-01-20T13:42:52.119Z,100058.97
2023-01-20T13:45:25.681Z,100053.94
2023-01-20T13:47:57.439Z,100053.69
2023-01-20T13:50:29.383Z,100066.63
2023-01-20T13:53:14.853Z,100058.03
2023-01-20T13:56:00.715Z,100062.31
2023-01-20T13:58:30.157Z,100065.81
2023-01-20T14:00:59.327Z,100068.03
2023-01-20T14:03:30.037Z,100070.44
2023-01-20T14:06:00.327Z,100067.97
2023-01-20T14:08:30.229Z,100070.63
2023-01-20T14:11:16.977Z,100077.16
2023-01-20T14:13:52.753Z,100080.78
2023-01-20T14:16:22.173Z,100079.91
2023-01-20T14:18:50.325Z,100084.31
2023-01-20T14:21:21.006Z,100078.06
2023-01-20T14:23:49.096Z,100079.53
2023-01-20T14:26:24.292Z,100078.88
2023-01-20T14:28:53.804Z,100084.22
2023-01-20T14:31:35.159Z,100081.56
2023-01-20T14:34:18.582Z,100086.09
2023-01-20T14:36:47.142Z,100081.06
2023-01-20T14:39:21.198Z,100080.53
2023-01-20T14:41:51.943Z,100076.72
2023-01-20T14:44:22.105Z,100083.97
2023-01-20T14:46:51.836Z,100090.91
2023-01-20T14:49:22.349Z,100095.69
2023-01-20T14:51:51.238Z,100090.72
2023-01-20T14:54:35.213Z,100082.19
2023-01-20T14:57:26.333Z,100089.63
2023-01-20T15:00:16.950Z,100093.66
2023-01-20T15:02:58.023Z,100101.25
2023-01-20T15:05:37.898Z,100106.97
2023-01-20T15:08:24.349Z,100105.00
2023-01-20T15:11:12.435Z,100101.81
2023-01-20T15:13:42.334Z,100099.38
2023-01-20T15:16:18.864Z,100103.13
2023-01-20T15:19:25.159Z,100098.81
2023-01-20T15:21:56.259Z,100103.44
2023-01-20T15:24:30.472Z,100097.59
2023-01-20T15:27:00.665Z,100100.63
2023-01-20T15:29:31.069Z,100097.03
2023-01-20T15:32:00.493Z,100100.06
2023-01-20T15:34:29.250Z,100101.88
2023-01-20T15:36:57.097Z,100097.75
2023-01-20T15:39:28.909Z,100099.88
2023-01-20T15:41:57.062Z,100094.78
2023-01-20T15:44:26.121Z,100105.16
2023-01-20T15:46:57.508Z,100102.72
2023-01-20T15:49:25.901Z,100100.50
2023-01-20T15:51:53.661Z,100090.97
2023-01-20T15:54:21.208Z,100104.13
2023-01-20T15:56:48.824Z,100109.78
2023-01-20T15:59:20.102Z,100107.78
2023-01-20T16:01:51.189Z,100106.31
2023-01-20T16:04:21.730Z,100110.56
2023-01-20T16:06:49.333Z,100109.41
2023-01-20T16:09:25.756Z,100109.47
2023-01-20T16:11:54.421Z,100113.38
2023-01-20T16:14:22.056Z,100110.31
2023-01-20T16:16:49.688Z,100121.56
2023-01-20T16:19:20.981Z,100127.53
2023-01-20T16:21:48.681Z,100126.88
2023-01-20T16:24:16.196Z,100131.16
2023-01-20T16:26:48.635Z,100133.69
2023-01-20T16:29:16.372Z,100128.09
2023-01-20T16:31:43.937Z,100136.75
2023-01-20T16:34:11.559Z,100136.81
2023-01-20T16:36:40.429Z,100145.63
2023-01-20T16:39:08.051Z,100136.59
2023-01-20T16:41:37.963Z,100135.53
2023-01-20T16:44:05.683Z,100141.41
2023-01-20T16:46:33.700Z,100152.38
2023-01-20T16:49:02.934Z,100152.00
2023-01-20T16:51:31.847Z,100157.59
2023-01-20T16:54:00.838Z,100155.34
2023-01-20T16:56:30.635Z,100166.28
2023-01-20T16:59:00.516Z,100159.66
2023-01-20T17:01:29.852Z,100159.28
2023-01-20T17:03:59.530Z,100165.91
2023-01-20T17:06:28.962Z,100168.06
2023-01-20T17:08:58.410Z,100171.88
2023-01-20T17:11:29.565Z,100174.13
2023-01-20T17:13:58.467Z,100178.13
2023-01-20T17:16:26.904Z,100179.78
2023-01-20T17:18:58.421Z,100177.63
2023-01-20T17:21:28.276Z,100174.69
2023-01-20T17:23:58.329Z,100178.13
2023-01-20T17:26:27.745Z,100174.59
2023-01-20T17:28:56.480Z,100169.44
2023-01-20T17:31:24.507Z,100173.13
2023-01-20T17:33:52.665Z,100174.13
2023-01-20T17:36:20.386Z,100173.31
2023-01-20T17:38:48.399Z,100172.63
2023-01-20T17:41:16.303Z,100182.97
2023-01-20T17:43:46.544Z,100175.28
2023-01-20T17:46:16.579Z,100177.03
2023-01-20T17:48:44.791Z,100176.06
2023-01-20T17:51:13.105Z,100183.06
2023-01-20T17:53:40.896Z,100189.16
2023-01-20T17:56:12.907Z,100188.94
2023-01-20T17:58:42.019Z,100188.75
2023-01-20T18:01:12.311Z,100192.03
2023-01-20T18:03:41.947Z,100190.28
2023-01-20T18:06:11.771Z,100198.91
2023-01-20T18:08:39.588Z,100199.66
2023-01-20T18:11:09.261Z,100205.50
2023-01-20T18:13:37.629Z,100211.66
2023-01-20T18:16:05.691Z,100203.06
2023-01-20T18:18:34.872Z,100212.53
2023-01-20T18:21:10.175Z,100212.53
2023-01-20T18:23:39.247Z,100216.75
2023-01-20T18:26:08.248Z,100222.06
2023-01-20T18:28:37.320Z,100210.00
2023-01-20T18:31:08.975Z,100219.56
2023-01-20T18:33:39.847Z,100217.75
2023-01-20T18:36:11.234Z,100217.75
2023-01-20T18:38:43.049Z,100208.38
2023-01-20T18:41:11.621Z,100209.03
2023-01-20T18:43:39.693Z,100211.38
2023-01-20T18:46:08.679Z,100211.19
2023-01-20T18:48:40.196Z,100204.16
2023-01-20T18:51:10.104Z,100212.72
2023-01-20T18:53:38.124Z,100212.94
2023-01-20T18:56:08.482Z,100215.47
2023-01-20T18:58:38.355Z,100223.97
2023-01-20T19:01:07.732Z,100218.00
2023-01-20T19:03:36.583Z,100222.50
2023-01-20T19:06:07.641Z,100213.31
2023-01-20T19:08:35.670Z,100220.16
2023-01-20T19:11:05.215Z,100225.22
2023-01-20T19:13:33.571Z,100217.22
2023-01-20T19:16:01.464Z,100219.97
2023-01-20T19:18:29.291Z,100229.41
2023-01-20T19:20:57.062Z,100232.97
2023-01-20T19:23:25.964Z,100229.53
2023-01-20T19:26:00.900Z,100223.38
2023-01-20T19:28:28.491Z,100234.31
2023-01-20T19:30:56.188Z,100234.41
2023-01-20T19:33:23.784Z,100231.88
2023-01-20T19:35:51.355Z,100230.78
2023-01-20T19:38:18.910Z,100237.81
2023-01-20T19:40:47.765Z,100233.06
2023-01-20T19:43:15.318Z,100241.66
2023-01-20T19:45:46.294Z,100238.16
2023-01-20T19:48:14.112Z,100238.91
2023-01-20T19:50:41.789Z,100234.81
2023-01-20T19:53:09.365Z,100244.09
2023-01-20T19:55:36.897Z,100242.53
2023-01-20T19:58:06.251Z,100248.47
2023-01-20T20:00:33.873Z,100241.66
2023-01-20T20:03:02.884Z,100241.84
2023-01-20T20:05:32.598Z,100244.66
2023-01-20T20:08:00.277Z,100237.97
2023-01-20T20:10:27.813Z,100237.16
2023-01-20T20:12:57.518Z,100237.97
2023-01-20T20:15:26.418Z,100238.22
2023-01-20T20:17:55.050Z,100246.25
2023-01-20T20:20:22.650Z,100251.13
2023-01-20T20:22:50.322Z,100247.00
2023-01-20T20:25:18.035Z,100256.28
2023-01-20T20:27:45.588Z,100258.94
2023-01-20T20:30:13.870Z,100258.25
2023-01-20T20:32:42.914Z,100250.63
2023-01-20T20:35:10.609Z,100257.38
2023-01-20T20:37:38.274Z,100258.16
2023-01-20T20:40:06.754Z,100258.81
2023-01-20T20:42:34.915Z,100263.13
2023-01-20T20:45:02.456Z,100265.28
2023-01-20T20:47:29.990Z,100264.78
2023-01-20T20:49:58.864Z,100262.34
2023-01-20T20:52:26.418Z,100263.03
2023-01-20T20:54:56.021Z,100269.50
2023-01-20T20:57:23.626Z,100273.66
2023-01-20T20:59:59.109Z,100272.09
2023-01-20T21:02:27.626Z,100268.50
2023-01-20T21:04:55.253Z,100268.88
2023-01-20T21:07:24.289Z,100274.84
2023-01-20T21:09:52.043Z,100280.13
2023-01-20T21:12:19.661Z,100269.97
2023-01-20T21:14:47.134Z,100276.97
2023-01-20T21:17:14.692Z,100281.31
2023-01-20T21:19:42.193Z,100273.69
2023-01-20T21:22:09.796Z,100273.88
2023-01-20T21:24:38.674Z,100270.75
2023-01-20T21:27:06.366Z,100271.63
2023-01-20T21:29:33.893Z,100279.31
2023-01-20T21:32:01.431Z,100279.31
2023-01-20T21:34:29.039Z,100279.16
2023-01-20T21:36:56.751Z,100279.72
2023-01-20T21:39:24.297Z,100283.41
2023-01-20T21:41:53.171Z,100279.72
2023-01-20T21:44:28.962Z,100280.69
2023-01-20T21:46:57.297Z,100280.69
2023-01-20T21:49:42.349Z,100277.47
2023-01-20T21:52:44.494Z,100281.41
2023-01-20T21:55:15.766Z,100285.91
2023-01-20T21:57:44.689Z,100283.53
2023-01-20T22:00:13.357Z,100286.84
2023-01-20T22:02:43.270Z,100292.13
2023-01-20T22:05:11.015Z,100290.34
2023-01-20T22:07:38.587Z,100287.94
2023-01-20T22:10:07.620Z,100290.47
2023-01-20T22:12:35.628Z,100295.56
2023-01-20T22:15:05.223Z,100295.34
2023-01-20T22:17:32.775Z,100295.91
2023-01-20T22:20:00.359Z,100294.88
2023-01-20T22:22:27.894Z,100302.38
2023-01-20T22:24:55.474Z,100297.91
2023-01-20T22:27:23.074Z,100306.38
2023-01-20T22:29:50.620Z,100306.38
2023-01-20T22:32:19.525Z,100300.44
2023-01-20T22:34:47.099Z,100319.88
2023-01-20T22:37:14.657Z,100314.66
2023-01-20T22:39:42.227Z,100315.66
2023-01-20T22:42:09.829Z,100314.31
2023-01-20T22:44:37.363Z,100310.88
2023-01-20T22:47:10.072Z,100320.34
2023-01-20T22:49:38.965Z,100324.84
2023-01-20T22:52:06.626Z,100325.41
2023-01-20T22:54:37.801Z,100329.72
2023-01-20T22:57:05.480Z,100327.97
2023-01-20T22:59:32.999Z,100321.13
2023-01-20T23:02:00.573Z,100337.91
2023-01-20T23:04:29.431Z,100336.53
2023-01-20T23:06:58.307Z,100340.66
2023-01-20T23:09:26.036Z,100343.41
2023-01-20T23:11:53.741Z,100345.72
2023-01-20T23:14:41.354Z,100344.75
2023-01-20T23:17:08.866Z,100353.13
2023-01-20T23:19:39.264Z,100346.22
2023-01-20T23:22:08.630Z,100347.47
2023-01-20T23:24:36.451Z,100351.69
2023-01-20T23:27:04.026Z,100348.44
2023-01-20T23:29:31.668Z,100349.63
2023-01-20T23:31:59.273Z,100348.06
2023-01-20T23:34:26.877Z,100343.88
2023-01-20T23:36:54.472Z,100344.84
2023-01-20T23:39:23.545Z,100347.09
2023-01-20T23:41:51.422Z,100350.41
2023-01-20T23:44:19.055Z,100349.41
2023-01-20T23:46:46.674Z,100356.28
2023-01-20T23:49:14.494Z,100356.28
2023-01-20T23:51:42.160Z,100356.47
2023-01-20T23:54:13.269Z,100361.13
2023-01-20T23:56:42.208Z,100364.25
2023-01-20T23:59:09.856Z,100366.47
